Airfield :
LOGIN :

Register | Disclaimer

   EN    FR    IT 

 










Legend :    VFR   Marginal VFR   IFR   Intensive IFR   Very Intensive IFR
Visi :
Ceiling :
>= 8 km
>= 3000ft
5 to 8 km
1000 to 3000 ft
1500m to 5 km
500 to 1000 ft
800 to 1500m
200 to 500 ft
< 800m
< 200 ft
Symbols :   Thunderstorms  Fog  Heavy snow  Heavy precipitations  Wind > 20 kt
SIGMETs :     Misc.  Thunderstorms  Icing  Turbulence  Mountain Waves  Volcanic Ashes







- Airport Elevation : 17 ft
- IATA code : GRQ


EHGG - Groningen Eelde

CURRENT METAR :
  • 202355Z AUTO 10009KT 060V150 9000 BKN013 OVC015 02/00 Q1013

EXPIRED METARs :
  • 202325Z AUTO 10011KT 060V150 9999 OVC013 02/00 Q1013
  • 202255Z AUTO 10011KT 060V140 9999 OVC013 02/00 Q1013
  • 202225Z AUTO 10012KT 060V140 9999 BKN013 OVC015 02/00 Q1013
  • 202155Z AUTO 10013KT 070V150 9999 BKN013 OVC015 02/00 Q1013
  • 202125Z AUTO 10014KT 050V150 9999 BKN012 OVC014 02/00 Q1012 NOSIG

TAF TAF EHGG
Valid from the 21 at 00:00 until the 22 at 06:00 UTC


202317Z 2100/2206 09013KT 9999 BKN014
BECMG 2100/2103 CAVOK
PROB40 2106/2112 BKN010
BECMG 2120/2123 6000
PROB40 2200/2206 4000 BR BKN005
No reported NOTAMs for that airfield.



MET'MAP, your aeronautical weather chart ! - Copyright ORBIFLY December 2007 - Disclaimer

ORBIFLY MET'MAP TEAM :

Programming & Development : Alexandra Zaïnal
Concept & Development : Baudouin d'Aumeries
Co-Development & Prog : Marc-Olivier Méhu
Technical & hardware support : Manuel Goepfert

Contact : metmap@orbifly.com




SOURCES & CREDITS :

   NOAA